Time;durP1;ratioP1;P1;durP2;ratioP2;P2;SDS_P1;SDS_P2;PMS_P1;PMS_P2;Temp;Humidity;BMP_temperature;BMP_pressure;BME280_temperature;BME280_humidity;BME280_pressure;Samples;Min_cycle;Max_cycle;Signal;HPM_P1;HPM_P2
2022/01/18 00:00:43;;;;;;;;;;;;;;;;;;5054100;28;20372;-68
2022/01/18 00:03:08;;;;;;;;;;;;;;;;;;5047577;28;19949;-67
2022/01/18 00:05:34;;;;;;;;;;;;;;;;;;5054609;28;20157;-67
2022/01/18 00:07:59;;;;;;;;;;;;;;;;;;5052145;28;19909;-67
2022/01/18 00:10:27;;;;;;;;;;;;;;;;;;5058207;28;19912;-67
2022/01/18 00:15:37;;;;;;;;;;;;;;;;;;5051538;28;19971;-67
2022/01/18 00:18:08;;;;;;;;;;;;;;;;;;5054974;28;19908;-67
2022/01/18 00:20:45;;;;;;;;;;;;;;;;;;5051341;28;19912;-67
2022/01/18 00:23:10;;;;;;;;;;;;;;;;;;5053962;28;19915;-67
2022/01/18 00:25:38;;;;;;;;;;;;;;;;;;5052574;28;19913;-67
2022/01/18 00:28:05;;;;;;;;;;;;;;;;;;5056049;28;19908;-67
2022/01/18 00:33:16;;;;;;;;;;;;;;;;;;5049172;28;20632;-67
2022/01/18 00:35:44;;;;;;;;;;;;;;;;;;5047370;28;20652;-67
2022/01/18 00:38:27;;;;;;;;;;;;;;;;;;5048011;28;19924;-67
2022/01/18 00:40:53;;;;;;;;;;;;;;;;;;5047568;28;19912;-67
2022/01/18 00:43:18;;;;;;;;;;;;;;;;;;5056991;28;19947;-67
2022/01/18 00:45:44;;;;;;;;;;;;;;;;;;5056489;28;20593;-67
2022/01/18 00:48:09;;;;;;;;;;;;;;;;;;5051135;28;19916;-67
2022/01/18 00:50:34;;;;;;;;;;;;;;;;;;5057033;28;19916;-67
2022/01/18 00:52:59;;;;;;;;;;;;;;;;;;5052398;28;19916;-67
2022/01/18 00:55:32;;;;;;;;;;;;;;;;;;5056751;28;19927;-67
2022/01/18 00:57:57;;;;;;;;;;;;;;;;;;5047217;28;20459;-67
2022/01/18 01:00:22;;;;;;;;;;;;;;;;;;5056449;28;20000;-67
2022/01/18 01:02:47;;;;;;;;;;;;;;;;;;5056898;28;20376;-67
2022/01/18 01:05:12;;;;;;;;;;;;;;;;;;5054986;28;19913;-67
2022/01/18 01:07:40;;;;;;;;;;;;;;;;;;5061844;28;19938;-67
2022/01/18 01:10:05;;;;;;;;;;;;;;;;;;5055181;28;19971;-67
2022/01/18 01:12:30;;;;;;;;;;;;;;;;;;5058361;28;19928;-67
2022/01/18 01:15:03;;;;;;;;;;;;;;;;;;5056350;28;19912;-67
2022/01/18 01:36:30;;;;;;;;;;;;;;;;;;5054382;28;20463;-67
2022/01/18 01:44:47;;;;;;;;;;;;;;;;;;5020078;28;19917;-67
2022/01/18 01:47:12;;;;;;;;;;;;;;;;;;5018320;28;20406;-67
2022/01/18 01:49:38;;;;;;;;;;;;;;;;;;5019905;28;19920;-67
2022/01/18 01:52:03;;;;;;;;;;;;;;;;;;5020303;28;19913;-67
2022/01/18 01:54:28;;;;;;;;;;;;;;;;;;5019747;28;20324;-67
2022/01/18 01:56:53;;;;;;;;;;;;;;;;;;5020905;28;20606;-67
2022/01/18 01:59:18;;;;;;;;;;;;;;;;;;5020428;28;19917;-67
2022/01/18 02:04:11;;;;;;;;;;;;;;;;;;5054298;28;19928;-64
2022/01/18 02:06:36;;;;;;;;;;;;;;;;;;5051208;28;20011;-64
2022/01/18 02:09:01;;;;;;;;;;;;;;;;;;5047846;28;19920;-66
2022/01/18 02:11:26;;;;;;;;;;;;;;;;;;5054690;28;19943;-67
2022/01/18 02:13:51;;;;;;;;;;;;;;;;;;5055555;28;20035;-67
2022/01/18 02:21:46;;;;;;;;;;;;;;;;;;5053930;28;19948;-67
2022/01/18 02:21:49;;;;;;;;;;;;;;;;;;5056188;28;19919;-66
2022/01/18 02:24:15;;;;;;;;;;;;;;;;;;5055363;28;19952;-66
2022/01/18 02:26:40;;;;;;;;;;;;;;;;;;5056048;28;19997;-66
2022/01/18 02:29:05;;;;;;;;;;;;;;;;;;5054031;28;19919;-66
2022/01/18 02:31:30;;;;;;;;;;;;;;;;;;5055291;28;19921;-66
2022/01/18 02:33:55;;;;;;;;;;;;;;;;;;5053596;28;19957;-67
2022/01/18 02:36:20;;;;;;;;;;;;;;;;;;5056424;28;19931;-67
2022/01/18 02:38:45;;;;;;;;;;;;;;;;;;5055329;28;19925;-67
2022/01/18 02:41:10;;;;;;;;;;;;;;;;;;5054678;28;19948;-67
2022/01/18 02:43:50;;;;;;;;;;;;;;;;;;5054957;28;19924;-66
2022/01/18 02:46:15;;;;;;;;;;;;;;;;;;5056586;28;19938;-66
2022/01/18 02:48:40;;;;;;;;;;;;;;;;;;5056644;28;19912;-67
2022/01/18 02:51:05;;;;;;;;;;;;;;;;;;5053495;28;20447;-67
2022/01/18 02:53:30;;;;;;;;;;;;;;;;;;5054011;28;19920;-66
2022/01/18 02:55:55;;;;;;;;;;;;;;;;;;5054973;28;19921;-67
2022/01/18 02:58:33;;;;;;;;;;;;;;;;;;5054132;28;19932;-66
2022/01/18 03:03:29;;;;;;;;;;;;;;;;;;5054607;28;20074;-66
2022/01/18 03:05:55;;;;;;;;;;;;;;;;;;5055997;28;19995;-67
2022/01/18 03:08:20;;;;;;;;;;;;;;;;;;5047179;28;19940;-66
2022/01/18 03:10:45;;;;;;;;;;;;;;;;;;5049776;28;19920;-67
2022/01/18 03:13:11;;;;;;;;;;;;;;;;;;5048783;28;19920;-67
2022/01/18 03:15:36;;;;;;;;;;;;;;;;;;5052738;28;20284;-67
2022/01/18 03:18:01;;;;;;;;;;;;;;;;;;5046739;28;19959;-67
2022/01/18 03:20:26;;;;;;;;;;;;;;;;;;5053986;28;20428;-67
2022/01/18 03:22:51;;;;;;;;;;;;;;;;;;5052416;28;20411;-68
2022/01/18 03:25:40;;;;;;;;;;;;;;;;;;5054653;28;19916;-68
2022/01/18 03:28:05;;;;;;;;;;;;;;;;;;5052706;28;19916;-68
2022/01/18 03:30:30;;;;;;;;;;;;;;;;;;5048746;28;19916;-68
2022/01/18 03:32:56;;;;;;;;;;;;;;;;;;5053309;28;20336;-68
2022/01/18 03:35:23;;;;;;;;;;;;;;;;;;5047567;28;19970;-68
2022/01/18 03:37:48;;;;;;;;;;;;;;;;;;5050123;28;19944;-68
2022/01/18 03:40:13;;;;;;;;;;;;;;;;;;5047690;28;20093;-68
2022/01/18 03:45:06;;;;;;;;;;;;;;;;;;5047229;28;19917;-68
2022/01/18 03:47:31;;;;;;;;;;;;;;;;;;5053320;28;20404;-68
2022/01/18 03:49:56;;;;;;;;;;;;;;;;;;5053301;28;19921;-68
2022/01/18 03:52:21;;;;;;;;;;;;;;;;;;5048670;28;19920;-68
2022/01/18 03:54:47;;;;;;;;;;;;;;;;;;5048112;28;19913;-68
2022/01/18 03:57:13;;;;;;;;;;;;;;;;;;5057643;28;20303;-68
2022/01/18 03:59:38;;;;;;;;;;;;;;;;;;5048155;28;20436;-68
2022/01/18 04:02:03;;;;;;;;;;;;;;;;;;5052483;28;19923;-68
2022/01/18 04:04:28;;;;;;;;;;;;;;;;;;5045762;28;19927;-68
2022/01/18 04:06:53;;;;;;;;;;;;;;;;;;5050401;28;19919;-68
2022/01/18 04:09:20;;;;;;;;;;;;;;;;;;5048200;28;19955;-68
2022/01/18 04:11:45;;;;;;;;;;;;;;;;;;5052435;28;19923;-68
2022/01/18 04:14:10;;;;;;;;;;;;;;;;;;5049763;28;19921;-68
2022/01/18 04:16:43;;;;;;;;;;;;;;;;;;5049450;28;19955;-68
2022/01/18 04:27:38;;;;;;;;;;;;;;;;;;5036369;28;19962;-68
2022/01/18 04:30:03;;;;;;;;;;;;;;;;;;5044956;28;19993;-68
2022/01/18 04:32:28;;;;;;;;;;;;;;;;;;5037823;28;20004;-69
2022/01/18 04:34:53;;;;;;;;;;;;;;;;;;5039870;28;19912;-68
2022/01/18 04:37:18;;;;;;;;;;;;;;;;;;5046634;28;19912;-68
2022/01/18 04:39:46;;;;;;;;;;;;;;;;;;5035906;28;19921;-68
2022/01/18 04:50:26;;;;;;;;;;;;;;;;;;4999360;28;20069;-68
2022/01/18 04:52:51;;;;;;;;;;;;;;;;;;4996895;28;19926;-68
2022/01/18 04:55:18;;;;;;;;;;;;;;;;;;4997361;28;20004;-68
2022/01/18 04:57:53;;;;;;;;;;;;;;;;;;5001449;28;19913;-68
2022/01/18 05:00:18;;;;;;;;;;;;;;;;;;5015203;28;20004;-68
2022/01/18 05:02:43;;;;;;;;;;;;;;;;;;5015100;28;20058;-68
2022/01/18 05:05:10;;;;;;;;;;;;;;;;;;5018785;28;19956;-68
2022/01/18 05:07:35;;;;;;;;;;;;;;;;;;5016157;28;19920;-68
2022/01/18 05:10:01;;;;;;;;;;;;;;;;;;5017028;28;19913;-68
2022/01/18 05:13:09;;;;;;;;;;;;;;;;;;5017775;28;20561;-68
2022/01/18 05:23:08;;;;;;;;;;;;;;;;;;5056061;28;19970;-68
2022/01/18 05:25:33;;;;;;;;;;;;;;;;;;5051751;28;19959;-68
2022/01/18 05:27:59;;;;;;;;;;;;;;;;;;5049260;28;19917;-68
2022/01/18 05:30:24;;;;;;;;;;;;;;;;;;5050087;28;19913;-68
2022/01/18 05:32:49;;;;;;;;;;;;;;;;;;5054999;28;20008;-68
2022/01/18 05:35:15;;;;;;;;;;;;;;;;;;5057379;28;20312;-68
2022/01/18 05:37:40;;;;;;;;;;;;;;;;;;5052319;28;20011;-68
2022/01/18 05:40:05;;;;;;;;;;;;;;;;;;5058835;28;19920;-68
2022/01/18 05:42:30;;;;;;;;;;;;;;;;;;5058048;28;19921;-68
2022/01/18 05:44:55;;;;;;;;;;;;;;;;;;5058965;28;19920;-68
2022/01/18 05:47:21;;;;;;;;;;;;;;;;;;5062807;28;19912;-68
2022/01/18 05:49:46;;;;;;;;;;;;;;;;;;5062004;28;19917;-68
2022/01/18 05:52:11;;;;;;;;;;;;;;;;;;5061706;28;20530;-68
2022/01/18 05:54:36;;;;;;;;;;;;;;;;;;5062138;28;19917;-68
2022/01/18 05:57:01;;;;;;;;;;;;;;;;;;5062369;28;19912;-68
2022/01/18 05:59:34;;;;;;;;;;;;;;;;;;5057536;28;19916;-68
2022/01/18 06:02:03;;;;;;;;;;;;;;;;;;5055325;28;20022;-68
2022/01/18 06:07:16;;;;;;;;;;;;;;;;;;5040099;28;19916;-68
2022/01/18 06:09:41;;;;;;;;;;;;;;;;;;5050321;28;20031;-68
2022/01/18 06:12:06;;;;;;;;;;;;;;;;;;5061438;28;19912;-68
2022/01/18 06:14:33;;;;;;;;;;;;;;;;;;5060063;28;20053;-68
2022/01/18 06:16:58;;;;;;;;;;;;;;;;;;5060966;28;19916;-68
2022/01/18 06:19:23;;;;;;;;;;;;;;;;;;5051179;28;19917;-68
2022/01/18 06:21:48;;;;;;;;;;;;;;;;;;5061788;28;20003;-68
2022/01/18 06:24:13;;;;;;;;;;;;;;;;;;5053274;28;20009;-68
2022/01/18 06:26:39;;;;;;;;;;;;;;;;;;5058018;28;19969;-68
2022/01/18 06:29:04;;;;;;;;;;;;;;;;;;5056929;28;19927;-68
2022/01/18 06:31:29;;;;;;;;;;;;;;;;;;5060367;28;19912;-68
2022/01/18 06:33:54;;;;;;;;;;;;;;;;;;5058570;28;20413;-68
2022/01/18 06:36:19;;;;;;;;;;;;;;;;;;5060486;28;19912;-68
2022/01/18 06:38:45;;;;;;;;;;;;;;;;;;5055488;28;19925;-68
2022/01/18 06:41:11;;;;;;;;;;;;;;;;;;5060108;28;19932;-68
2022/01/18 06:43:36;;;;;;;;;;;;;;;;;;5059014;28;20635;-68
2022/01/18 06:46:01;;;;;;;;;;;;;;;;;;5055718;28;20415;-68
2022/01/18 06:48:26;;;;;;;;;;;;;;;;;;5060279;28;20671;-68
2022/01/18 06:50:51;;;;;;;;;;;;;;;;;;5058787;28;19912;-68
2022/01/18 06:53:16;;;;;;;;;;;;;;;;;;5060709;28;19924;-68
2022/01/18 06:55:41;;;;;;;;;;;;;;;;;;5056337;28;19919;-68
2022/01/18 06:58:06;;;;;;;;;;;;;;;;;;5055394;28;19908;-68
2022/01/18 07:00:32;;;;;;;;;;;;;;;;;;5057873;28;19916;-69
2022/01/18 07:02:57;;;;;;;;;;;;;;;;;;5057454;28;19993;-68
2022/01/18 07:05:22;;;;;;;;;;;;;;;;;;5059023;28;20005;-68
2022/01/18 07:07:47;;;;;;;;;;;;;;;;;;5061446;28;19915;-68
2022/01/18 07:10:12;;;;;;;;;;;;;;;;;;5056435;28;20293;-68
2022/01/18 07:12:38;;;;;;;;;;;;;;;;;;5061067;28;19924;-68
2022/01/18 07:15:03;;;;;;;;;;;;;;;;;;5050916;28;19919;-68
2022/01/18 07:17:28;;;;;;;;;;;;;;;;;;5060331;28;20648;-68
2022/01/18 07:19:53;;;;;;;;;;;;;;;;;;5058316;28;20417;-68
2022/01/18 07:22:18;;;;;;;;;;;;;;;;;;5061164;28;20415;-68
2022/01/18 07:24:45;;;;;;;;;;;;;;;;;;5058246;28;20764;-68
2022/01/18 07:27:10;;;;;;;;;;;;;;;;;;5060435;28;20445;-68
2022/01/18 07:29:35;;;;;;;;;;;;;;;;;;5061220;28;20019;-68
2022/01/18 07:32:00;;;;;;;;;;;;;;;;;;5061813;28;19914;-68
2022/01/18 07:34:26;;;;;;;;;;;;;;;;;;5061248;28;20527;-68
2022/01/18 07:36:51;;;;;;;;;;;;;;;;;;5061105;28;19938;-68
2022/01/18 07:39:16;;;;;;;;;;;;;;;;;;5059649;28;19912;-68
2022/01/18 07:41:42;;;;;;;;;;;;;;;;;;5054751;28;20497;-68
2022/01/18 07:44:07;;;;;;;;;;;;;;;;;;5053534;28;19920;-68
2022/01/18 07:46:32;;;;;;;;;;;;;;;;;;5059833;28;19963;-68
2022/01/18 07:48:57;;;;;;;;;;;;;;;;;;5055603;28;19920;-68
2022/01/18 07:51:22;;;;;;;;;;;;;;;;;;5061151;28;19909;-68
2022/01/18 07:53:47;;;;;;;;;;;;;;;;;;5059962;28;19921;-68
2022/01/18 07:56:13;;;;;;;;;;;;;;;;;;5060588;28;19916;-68
2022/01/18 07:58:38;;;;;;;;;;;;;;;;;;5057328;28;19919;-68
2022/01/18 08:01:03;;;;;;;;;;;;;;;;;;5059376;28;19920;-68
2022/01/18 08:03:29;;;;;;;;;;;;;;;;;;5056349;28;20392;-68
2022/01/18 08:05:54;;;;;;;;;;;;;;;;;;5063857;28;20411;-68
2022/01/18 08:08:19;;;;;;;;;;;;;;;;;;5064303;28;19999;-68
2022/01/18 08:10:45;;;;;;;;;;;;;;;;;;5063972;28;19971;-68
2022/01/18 08:13:10;;;;;;;;;;;;;;;;;;5062336;28;19921;-68
2022/01/18 08:15:39;;;;;;;;;;;;;;;;;;5057799;28;20008;-68
2022/01/18 08:18:04;;;;;;;;;;;;;;;;;;5064400;28;19985;-68
2022/01/18 08:20:29;;;;;;;;;;;;;;;;;;5061605;28;19916;-67
2022/01/18 08:22:54;;;;;;;;;;;;;;;;;;5064170;28;19908;-68
2022/01/18 08:25:19;;;;;;;;;;;;;;;;;;5060637;28;19951;-67
2022/01/18 08:27:45;;;;;;;;;;;;;;;;;;5063820;28;19923;-68
2022/01/18 08:30:11;;;;;;;;;;;;;;;;;;5060931;28;19912;-67
2022/01/18 08:32:36;;;;;;;;;;;;;;;;;;5062820;28;20376;-67
2022/01/18 08:35:01;;;;;;;;;;;;;;;;;;5052413;28;19966;-67
2022/01/18 08:37:26;;;;;;;;;;;;;;;;;;5064941;28;19913;-67
2022/01/18 08:39:51;;;;;;;;;;;;;;;;;;5061957;28;19913;-67
2022/01/18 08:42:16;;;;;;;;;;;;;;;;;;5063874;28;19990;-67
2022/01/18 08:44:43;;;;;;;;;;;;;;;;;;5058386;28;20430;-67
2022/01/18 08:47:08;;;;;;;;;;;;;;;;;;5064331;28;19908;-67
2022/01/18 08:49:33;;;;;;;;;;;;;;;;;;5060061;28;19970;-67
2022/01/18 08:51:58;;;;;;;;;;;;;;;;;;5064467;28;19916;-67
2022/01/18 08:54:24;;;;;;;;;;;;;;;;;;5055078;28;20048;-68
2022/01/18 08:56:49;;;;;;;;;;;;;;;;;;5064215;28;19978;-67
2022/01/18 08:59:14;;;;;;;;;;;;;;;;;;5059251;28;19916;-67
2022/01/18 09:01:39;;;;;;;;;;;;;;;;;;5064108;28;20676;-67
2022/01/18 09:04:04;;;;;;;;;;;;;;;;;;5051862;28;20003;-67
2022/01/18 09:06:31;;;;;;;;;;;;;;;;;;5062706;28;20364;-67
2022/01/18 09:08:57;;;;;;;;;;;;;;;;;;5055602;28;19970;-68
2022/01/18 09:11:23;;;;;;;;;;;;;;;;;;5064230;28;19919;-67
2022/01/18 09:13:49;;;;;;;;;;;;;;;;;;5058287;28;19920;-67
2022/01/18 09:16:14;;;;;;;;;;;;;;;;;;5059693;28;19939;-67
2022/01/18 09:18:39;;;;;;;;;;;;;;;;;;5059561;28;20334;-67
2022/01/18 09:21:04;;;;;;;;;;;;;;;;;;5059994;28;20398;-67
2022/01/18 09:23:29;;;;;;;;;;;;;;;;;;5061259;28;20657;-67
2022/01/18 09:25:54;;;;;;;;;;;;;;;;;;5059447;28;20557;-67
2022/01/18 09:28:19;;;;;;;;;;;;;;;;;;5061130;28;19920;-67
2022/01/18 09:30:44;;;;;;;;;;;;;;;;;;5062399;28;19919;-67
2022/01/18 09:33:10;;;;;;;;;;;;;;;;;;5062884;28;19916;-67
2022/01/18 09:35:35;;;;;;;;;;;;;;;;;;5063188;28;19917;-67
2022/01/18 09:38:00;;;;;;;;;;;;;;;;;;5063868;28;20230;-67
2022/01/18 09:40:25;;;;;;;;;;;;;;;;;;5061326;28;19916;-68
2022/01/18 09:42:52;;;;;;;;;;;;;;;;;;5063557;28;19999;-67
2022/01/18 09:45:18;;;;;;;;;;;;;;;;;;5059145;28;20003;-67
2022/01/18 09:47:43;;;;;;;;;;;;;;;;;;5061872;28;20011;-67
2022/01/18 09:50:08;;;;;;;;;;;;;;;;;;5057804;28;19960;-67
2022/01/18 09:52:33;;;;;;;;;;;;;;;;;;5063349;28;19913;-67
2022/01/18 09:54:58;;;;;;;;;;;;;;;;;;5058423;28;20409;-67
2022/01/18 09:57:23;;;;;;;;;;;;;;;;;;5063257;28;19940;-67
2022/01/18 09:59:48;;;;;;;;;;;;;;;;;;5057672;28;19916;-68
2022/01/18 10:02:13;;;;;;;;;;;;;;;;;;5062924;28;19959;-67
2022/01/18 10:04:39;;;;;;;;;;;;;;;;;;5058321;28;19914;-67
2022/01/18 10:07:04;;;;;;;;;;;;;;;;;;5060893;28;20381;-67
2022/01/18 10:09:29;;;;;;;;;;;;;;;;;;5062706;28;19920;-67
2022/01/18 10:11:54;;;;;;;;;;;;;;;;;;5062840;28;20526;-67
2022/01/18 10:14:19;;;;;;;;;;;;;;;;;;5053073;28;19927;-67
2022/01/18 10:16:45;;;;;;;;;;;;;;;;;;5063193;28;19920;-67
2022/01/18 10:19:10;;;;;;;;;;;;;;;;;;5053852;28;20403;-68
2022/01/18 10:21:36;;;;;;;;;;;;;;;;;;5062922;28;19989;-67
2022/01/18 10:24:01;;;;;;;;;;;;;;;;;;5057091;28;19919;-67
2022/01/18 10:26:26;;;;;;;;;;;;;;;;;;5061774;28;19958;-67
2022/01/18 10:28:51;;;;;;;;;;;;;;;;;;5054838;28;19925;-67
2022/01/18 10:31:16;;;;;;;;;;;;;;;;;;5058820;28;19916;-67
2022/01/18 10:33:56;;;;;;;;;;;;;;;;;;5061874;28;19916;-67
2022/01/18 10:36:22;;;;;;;;;;;;;;;;;;5049781;28;20011;-67
2022/01/18 10:38:48;;;;;;;;;;;;;;;;;;5056840;28;20624;-68
2022/01/18 10:41:13;;;;;;;;;;;;;;;;;;5051686;28;19995;-67
2022/01/18 10:43:38;;;;;;;;;;;;;;;;;;5057788;28;19999;-67
2022/01/18 10:46:03;;;;;;;;;;;;;;;;;;5058751;28;19909;-67
2022/01/18 10:48:28;;;;;;;;;;;;;;;;;;5060038;28;20050;-68
2022/01/18 10:50:53;;;;;;;;;;;;;;;;;;5054693;28;20317;-67
2022/01/18 10:53:18;;;;;;;;;;;;;;;;;;5064545;28;19912;-67
2022/01/18 10:55:44;;;;;;;;;;;;;;;;;;5061083;28;20051;-67
2022/01/18 10:58:09;;;;;;;;;;;;;;;;;;5061873;28;20999;-67
2022/01/18 11:00:35;;;;;;;;;;;;;;;;;;5056102;28;20268;-67
2022/01/18 11:03:00;;;;;;;;;;;;;;;;;;5061848;28;19921;-67
2022/01/18 11:05:26;;;;;;;;;;;;;;;;;;5055844;28;20446;-67
2022/01/18 11:07:51;;;;;;;;;;;;;;;;;;5060457;28;19958;-67
2022/01/18 11:10:16;;;;;;;;;;;;;;;;;;5056649;28;19917;-67
2022/01/18 11:12:41;;;;;;;;;;;;;;;;;;5058971;28;20012;-67
2022/01/18 11:15:16;;;;;;;;;;;;;;;;;;5051166;28;20213;-67
2022/01/18 11:17:49;;;;;;;;;;;;;;;;;;5061873;28;20720;-67
2022/01/18 11:20:14;;;;;;;;;;;;;;;;;;5055078;28;19916;-68
2022/01/18 11:22:39;;;;;;;;;;;;;;;;;;5061811;28;20288;-67
2022/01/18 11:25:04;;;;;;;;;;;;;;;;;;5053237;28;19966;-67
2022/01/18 11:27:30;;;;;;;;;;;;;;;;;;5061992;28;19915;-67
2022/01/18 11:29:55;;;;;;;;;;;;;;;;;;5053067;28;19955;-67
2022/01/18 11:32:21;;;;;;;;;;;;;;;;;;5061180;28;19921;-67
2022/01/18 11:34:49;;;;;;;;;;;;;;;;;;5058410;28;20455;-67
2022/01/18 11:37:14;;;;;;;;;;;;;;;;;;5061539;28;19916;-67
2022/01/18 11:39:39;;;;;;;;;;;;;;;;;;5055305;28;20446;-67
2022/01/18 11:42:04;;;;;;;;;;;;;;;;;;5061685;28;19944;-67
2022/01/18 11:44:29;;;;;;;;;;;;;;;;;;5055369;28;19916;-67
2022/01/18 11:46:55;;;;;;;;;;;;;;;;;;5061629;28;20387;-67
2022/01/18 11:49:21;;;;;;;;;;;;;;;;;;5056234;28;19919;-67
2022/01/18 11:51:52;;;;;;;;;;;;;;;;;;5060595;28;20368;-67
2022/01/18 11:54:18;;;;;;;;;;;;;;;;;;5060738;28;19967;-67
2022/01/18 11:56:45;;;;;;;;;;;;;;;;;;5061542;28;20250;-67
2022/01/18 11:59:10;;;;;;;;;;;;;;;;;;5057879;28;19982;-67
2022/01/18 12:01:35;;;;;;;;;;;;;;;;;;5059680;28;19961;-68
2022/01/18 12:04:00;;;;;;;;;;;;;;;;;;5060269;28;19924;-67
2022/01/18 12:06:25;;;;;;;;;;;;;;;;;;5059431;28;19917;-67
2022/01/18 12:08:50;;;;;;;;;;;;;;;;;;5056663;28;20581;-67
2022/01/18 12:11:15;;;;;;;;;;;;;;;;;;5060973;28;19999;-67
2022/01/18 12:13:41;;;;;;;;;;;;;;;;;;5055278;28;19917;-67
2022/01/18 12:16:10;;;;;;;;;;;;;;;;;;5049555;28;19948;-67
2022/01/18 12:18:35;;;;;;;;;;;;;;;;;;5059197;28;19913;-67
2022/01/18 12:21:00;;;;;;;;;;;;;;;;;;5060322;28;20404;-67
2022/01/18 12:23:25;;;;;;;;;;;;;;;;;;5059022;28;19912;-68
2022/01/18 12:26:10;;;;;;;;;;;;;;;;;;5060207;28;20007;-67
2022/01/18 12:28:36;;;;;;;;;;;;;;;;;;5058665;28;19920;-67
2022/01/18 12:31:23;;;;;;;;;;;;;;;;;;5053220;28;20410;-67
2022/01/18 12:33:50;;;;;;;;;;;;;;;;;;5059542;28;19978;-67
2022/01/18 12:36:15;;;;;;;;;;;;;;;;;;5059130;28;19917;-68
2022/01/18 12:38:41;;;;;;;;;;;;;;;;;;5059581;28;19912;-67
2022/01/18 12:41:06;;;;;;;;;;;;;;;;;;5059391;28;19920;-67
2022/01/18 12:46:15;;;;;;;;;;;;;;;;;;5059720;28;20389;-68
2022/01/18 12:48:40;;;;;;;;;;;;;;;;;;5058813;28;19928;-67
2022/01/18 12:51:08;;;;;;;;;;;;;;;;;;5063247;28;19920;-68
2022/01/18 12:53:36;;;;;;;;;;;;;;;;;;5069449;28;19916;-68
2022/01/18 12:56:02;;;;;;;;;;;;;;;;;;5064229;28;19912;-68
2022/01/18 12:58:27;;;;;;;;;;;;;;;;;;5064200;28;20639;-67
2022/01/18 13:00:52;;;;;;;;;;;;;;;;;;5064487;28;19909;-67
2022/01/18 13:03:17;;;;;;;;;;;;;;;;;;5062661;28;19921;-68
2022/01/18 13:05:42;;;;;;;;;;;;;;;;;;5063707;28;19927;-67
2022/01/18 13:08:08;;;;;;;;;;;;;;;;;;5063458;28;20296;-67
2022/01/18 13:10:33;;;;;;;;;;;;;;;;;;5063087;28;19913;-67
2022/01/18 13:12:59;;;;;;;;;;;;;;;;;;5064033;28;20557;-67
2022/01/18 13:15:35;;;;;;;;;;;;;;;;;;5056703;28;19912;-67
2022/01/18 13:23:47;;;;;;;;;;;;;;;;;;5062772;28;19940;-67
2022/01/18 13:26:12;;;;;;;;;;;;;;;;;;5063812;28;19912;-67
2022/01/18 13:28:38;;;;;;;;;;;;;;;;;;5059472;28;19913;-68
2022/01/18 13:31:04;;;;;;;;;;;;;;;;;;5063773;28;20439;-68
2022/01/18 13:33:29;;;;;;;;;;;;;;;;;;5062796;28;19921;-67
2022/01/18 13:35:54;;;;;;;;;;;;;;;;;;5063239;28;19912;-67
2022/01/18 13:38:19;;;;;;;;;;;;;;;;;;5063085;28;20579;-68
2022/01/18 13:40:47;;;;;;;;;;;;;;;;;;5062502;28;19917;-67
2022/01/18 13:43:15;;;;;;;;;;;;;;;;;;5062081;28;19916;-67
2022/01/18 13:45:42;;;;;;;;;;;;;;;;;;5061945;28;20265;-67
2022/01/18 13:48:08;;;;;;;;;;;;;;;;;;5061837;28;19924;-67
2022/01/18 13:50:33;;;;;;;;;;;;;;;;;;5058804;28;19916;-67
2022/01/18 13:52:58;;;;;;;;;;;;;;;;;;5063407;28;19919;-68
2022/01/18 13:55:23;;;;;;;;;;;;;;;;;;5061066;28;20827;-68
2022/01/18 13:57:49;;;;;;;;;;;;;;;;;;5062951;28;20292;-67
2022/01/18 14:00:14;;;;;;;;;;;;;;;;;;5061794;28;20334;-67
2022/01/18 14:02:42;;;;;;;;;;;;;;;;;;5061959;28;20532;-67
2022/01/18 14:05:08;;;;;;;;;;;;;;;;;;5061544;28;19912;-67
2022/01/18 14:07:33;;;;;;;;;;;;;;;;;;5063545;28;20384;-68
2022/01/18 14:09:58;;;;;;;;;;;;;;;;;;5061392;28;19955;-67
2022/01/18 14:12:23;;;;;;;;;;;;;;;;;;5062055;28;19917;-67
2022/01/18 14:14:48;;;;;;;;;;;;;;;;;;5060712;28;19916;-68
2022/01/18 14:17:14;;;;;;;;;;;;;;;;;;5062575;28;20380;-67
2022/01/18 14:19:39;;;;;;;;;;;;;;;;;;5058319;28;19940;-67
2022/01/18 14:22:04;;;;;;;;;;;;;;;;;;5053710;28;19913;-68
2022/01/18 14:24:29;;;;;;;;;;;;;;;;;;5060915;28;20010;-68
2022/01/18 14:26:56;;;;;;;;;;;;;;;;;;5062764;28;19909;-68
2022/01/18 14:29:21;;;;;;;;;;;;;;;;;;5053751;28;20000;-68
2022/01/18 14:31:46;;;;;;;;;;;;;;;;;;5062349;28;19956;-68
2022/01/18 14:34:11;;;;;;;;;;;;;;;;;;5058305;28;19931;-68
2022/01/18 14:36:36;;;;;;;;;;;;;;;;;;5050123;28;19920;-68
2022/01/18 14:39:01;;;;;;;;;;;;;;;;;;5048633;28;19923;-68
2022/01/18 14:41:26;;;;;;;;;;;;;;;;;;5054944;28;19917;-68
2022/01/18 14:43:58;;;;;;;;;;;;;;;;;;5057427;28;19917;-68
2022/01/18 14:46:36;;;;;;;;;;;;;;;;;;5047067;28;20128;-68
2022/01/18 14:49:01;;;;;;;;;;;;;;;;;;5056994;28;19951;-68
2022/01/18 14:51:28;;;;;;;;;;;;;;;;;;5056808;28;19971;-68
2022/01/18 14:53:53;;;;;;;;;;;;;;;;;;5058837;28;20006;-68
2022/01/18 14:56:18;;;;;;;;;;;;;;;;;;5059004;28;19928;-68
2022/01/18 14:58:44;;;;;;;;;;;;;;;;;;5057398;28;20169;-68
2022/01/18 15:01:09;;;;;;;;;;;;;;;;;;5058839;28;19916;-68
2022/01/18 15:03:34;;;;;;;;;;;;;;;;;;5056740;28;19925;-68
2022/01/18 15:05:59;;;;;;;;;;;;;;;;;;5056956;28;19916;-68
2022/01/18 15:08:24;;;;;;;;;;;;;;;;;;5057173;28;19928;-68
2022/01/18 15:10:49;;;;;;;;;;;;;;;;;;5058510;28;19923;-68
2022/01/18 15:13:14;;;;;;;;;;;;;;;;;;5056452;28;20400;-68
2022/01/18 15:15:39;;;;;;;;;;;;;;;;;;5053158;28;19923;-68
2022/01/18 15:18:05;;;;;;;;;;;;;;;;;;5055310;28;19917;-68
2022/01/18 15:20:30;;;;;;;;;;;;;;;;;;5056926;28;19917;-68
2022/01/18 15:22:55;;;;;;;;;;;;;;;;;;5056236;28;19923;-68
2022/01/18 15:25:21;;;;;;;;;;;;;;;;;;5058322;28;20561;-68
2022/01/18 15:27:46;;;;;;;;;;;;;;;;;;5058117;28;19923;-68
2022/01/18 15:30:11;;;;;;;;;;;;;;;;;;5058297;28;19928;-68
2022/01/18 15:32:36;;;;;;;;;;;;;;;;;;5057384;28;19917;-68
2022/01/18 15:35:01;;;;;;;;;;;;;;;;;;5056917;28;19916;-68
2022/01/18 15:37:26;;;;;;;;;;;;;;;;;;5057933;28;19916;-68
2022/01/18 15:39:52;;;;;;;;;;;;;;;;;;5051021;28;19916;-68
2022/01/18 15:42:17;;;;;;;;;;;;;;;;;;5052493;28;19916;-68
2022/01/18 15:44:42;;;;;;;;;;;;;;;;;;5053470;28;20007;-68
2022/01/18 15:47:09;;;;;;;;;;;;;;;;;;5055021;28;19916;-68
2022/01/18 15:49:34;;;;;;;;;;;;;;;;;;5040374;28;20460;-68
2022/01/18 15:51:59;;;;;;;;;;;;;;;;;;5050993;28;19961;-68
2022/01/18 15:54:25;;;;;;;;;;;;;;;;;;5052521;28;19936;-68
2022/01/18 15:56:50;;;;;;;;;;;;;;;;;;5053126;28;19916;-68
2022/01/18 15:59:17;;;;;;;;;;;;;;;;;;5049650;28;19917;-68
2022/01/18 16:01:42;;;;;;;;;;;;;;;;;;5050125;28;20791;-68
2022/01/18 16:04:07;;;;;;;;;;;;;;;;;;5055563;28;19986;-68
2022/01/18 16:06:33;;;;;;;;;;;;;;;;;;5051160;28;20762;-68
2022/01/18 16:08:58;;;;;;;;;;;;;;;;;;5051236;28;19916;-68
2022/01/18 16:11:23;;;;;;;;;;;;;;;;;;5052900;28;19954;-68
2022/01/18 16:13:49;;;;;;;;;;;;;;;;;;5052196;28;20011;-68
2022/01/18 16:16:15;;;;;;;;;;;;;;;;;;5046113;28;19920;-68
2022/01/18 16:18:40;;;;;;;;;;;;;;;;;;5050614;28;19916;-68
2022/01/18 16:21:05;;;;;;;;;;;;;;;;;;5054336;28;19928;-68
2022/01/18 16:23:30;;;;;;;;;;;;;;;;;;5050257;28;19978;-68
2022/01/18 16:25:56;;;;;;;;;;;;;;;;;;5051519;28;19917;-68
2022/01/18 16:28:21;;;;;;;;;;;;;;;;;;5058182;28;19916;-68
2022/01/18 16:30:50;;;;;;;;;;;;;;;;;;5052030;28;19917;-68
2022/01/18 16:33:15;;;;;;;;;;;;;;;;;;5060511;28;19924;-68
2022/01/18 16:35:40;;;;;;;;;;;;;;;;;;5055918;28;19917;-68
2022/01/18 16:38:05;;;;;;;;;;;;;;;;;;5057215;28;19920;-68
2022/01/18 16:40:30;;;;;;;;;;;;;;;;;;5055859;28;19920;-68
2022/01/18 16:42:55;;;;;;;;;;;;;;;;;;5054820;28;20729;-68
2022/01/18 16:45:21;;;;;;;;;;;;;;;;;;5057420;28;19928;-68
2022/01/18 16:47:46;;;;;;;;;;;;;;;;;;5058717;28;19916;-68
2022/01/18 16:50:11;;;;;;;;;;;;;;;;;;5059083;28;20484;-66
2022/01/18 16:52:37;;;;;;;;;;;;;;;;;;5060825;28;19963;-66
2022/01/18 16:55:03;;;;;;;;;;;;;;;;;;5059443;28;19920;-66
2022/01/18 16:57:28;;;;;;;;;;;;;;;;;;5060533;28;20386;-66
2022/01/18 16:59:53;;;;;;;;;;;;;;;;;;5059060;28;20710;-66
2022/01/18 17:02:18;;;;;;;;;;;;;;;;;;5058746;28;20069;-66
2022/01/18 17:04:44;;;;;;;;;;;;;;;;;;5052213;28;19927;-66
2022/01/18 17:07:09;;;;;;;;;;;;;;;;;;5054421;28;20158;-66
2022/01/18 17:09:34;;;;;;;;;;;;;;;;;;5054229;28;19917;-66
2022/01/18 17:11:59;;;;;;;;;;;;;;;;;;5059013;28;20058;-66
2022/01/18 17:14:24;;;;;;;;;;;;;;;;;;5057442;28;20055;-66
2022/01/18 17:16:49;;;;;;;;;;;;;;;;;;5057551;28;20617;-66
2022/01/18 17:19:15;;;;;;;;;;;;;;;;;;5058191;28;20326;-66
2022/01/18 17:21:40;;;;;;;;;;;;;;;;;;5056670;28;20419;-67
2022/01/18 17:24:05;;;;;;;;;;;;;;;;;;5059300;28;20500;-67
2022/01/18 17:26:30;;;;;;;;;;;;;;;;;;5059874;28;20269;-67
2022/01/18 17:28:55;;;;;;;;;;;;;;;;;;5057793;28;20399;-67
2022/01/18 17:31:20;;;;;;;;;;;;;;;;;;5058984;28;19920;-67
2022/01/18 17:33:46;;;;;;;;;;;;;;;;;;5054324;28;19916;-67
2022/01/18 17:36:11;;;;;;;;;;;;;;;;;;5058302;28;19948;-67
2022/01/18 17:38:40;;;;;;;;;;;;;;;;;;5060589;28;20543;-67
2022/01/18 17:41:05;;;;;;;;;;;;;;;;;;5059457;28;19941;-67
2022/01/18 17:43:31;;;;;;;;;;;;;;;;;;5055970;28;19921;-67
2022/01/18 17:45:56;;;;;;;;;;;;;;;;;;5060104;28;19920;-66
2022/01/18 17:48:21;;;;;;;;;;;;;;;;;;5059239;28;19917;-66
2022/01/18 17:50:46;;;;;;;;;;;;;;;;;;5058360;28;19932;-66
2022/01/18 17:53:11;;;;;;;;;;;;;;;;;;5057922;28;19916;-67